Mayne Queen — VGRR — position and weather

sailwx.info

Track history (hours):
 
Tides and Currents Weather Stations Pressure Air Temp Water Temp Dewpoint Dewpoint Depression Visibility Wind Speed Wind Dir Waves Ship Positions

Mayne Queen

Last reported at 2018-Jan-21 06:14 UTC. Time now 2018-Jan-21 07:08 UTC.
Position N 48°42' W 123°24'.

Length 85 m; draft 3.8 m.

Type: Passenger vessel. MMSI: 316001238.

Date/timePositionNaut miles runAvg speedWind from/ knotsBaromVisibWave heightAir tempDewpointWater temp
2018-Jan-21 06:14N 48°42' W 123°24'311.5
2018-Jan-21 05:58N 48°44' W 123°23'510.9
2018-Jan-21 05:30N 48°49' W 123°20'510.7
2018-Jan-21 05:00N 48°48' W 123°12'5 9.6
2018-Jan-21 04:30N 48°50' W 123°19'2 3.4
2018-Jan-21 04:00N 48°48' W 123°19'7 7.8
2018-Jan-21 03:05N 48°42' W 123°24'110.5
2018-Jan-21 03:00N 48°42' W 123°24'611.5
2018-Jan-21 02:30N 48°48' W 123°21'3 6.0
2018-Jan-21 02:00N 48°51' W 123°20'2 3.8
2018-Jan-21 01:30N 48°53' W 123°19'2 3.9
2018-Jan-21 01:00N 48°51' W 123°20'3 5.7
2018-Jan-21 00:31N 48°48' W 123°19'3 6.7
2018-Jan-21 00:00N 48°45' W 123°22'3 0.9
2018-Jan-20 21:13N 48°43' W 123°24'312.5
2018-Jan-20 20:59N 48°46' W 123°22'510.4
2018-Jan-20 20:31N 48°49' W 123°17'2 3.4
2018-Jan-20 19:59N 48°49' W 123°14'4 8.5
2018-Jan-20 19:30N 48°51' W 123°20'3 5.4
2018-Jan-20 19:00N 48°48' W 123°19'3 5.4
2018-Jan-20 18:30N 48°51' W 123°20'5 9.2
2018-Jan-20 18:00N 48°48' W 123°13'2 4.2
2018-Jan-20 17:30N 48°49' W 123°17'2 3.9
2018-Jan-20 17:00N 48°48' W 123°19'611.6
2018-Jan-20 16:28N 48°43' W 123°24'1 2.2
2018-Jan-20 15:53N 48°41' W 123°24'512.3
2018-Jan-20 15:30N 48°46' W 123°22'510.4
2018-Jan-20 15:00N 48°51' W 123°20'3 5.5
2018-Jan-20 14:30N 48°48' W 123°19'3 6.3
2018-Jan-20 14:00N 48°45' W 123°22'4 0.7
2018-Jan-20 07:34N 48°41' W 123°24'111.7
2018-Jan-20 07:28N 48°43' W 123°24'612.1
2018-Jan-20 07:00N 48°48' W 123°21'610.5
2018-Jan-20 06:29N 48°48' W 123°12'3 6.0
2018-Jan-20 06:00N 48°49' W 123°17'3 6.6
2018-Jan-20 05:30N 48°52' W 123°19'1 2.9
2018-Jan-20 05:00N 48°52' W 123°21'3 6.0
2018-Jan-20 04:29N 48°48' W 123°21'613.0
2018-Jan-20 04:00N 48°43' W 123°24'3 3.4
2018-Jan-20 03:11N 48°45' W 123°22'212.5
2018-Jan-20 03:00N 48°47' W 123°20'1 2.4
2018-Jan-20 02:31N 48°48' W 123°20'4 8.5
2018-Jan-20 02:00N 48°53' W 123°19'2 4.0
2018-Jan-20 01:30N 48°51' W 123°20'0 0.6
2018-Jan-20 01:00N 48°51' W 123°20'611.8
2018-Jan-20 00:31N 48°48' W 123°12'5 7.0
2018-Jan-19 23:43N 48°47' W 123°20'313.6
2018-Jan-19 23:29N 48°44' W 123°21'2 0.9
2018-Jan-19 21:09N 48°43' W 123°24'212.1
2018-Jan-19 21:00N 48°45' W 123°23'612.6
2018-Jan-19 20:30N 48°51' W 123°20'1 2.2
2018-Jan-19 20:00N 48°52' W 123°19'1 1.4
2018-Jan-19 19:30N 48°52' W 123°20'1 1.8
2018-Jan-19 19:00N 48°51' W 123°20'5 9.4
2018-Jan-19 18:30N 48°48' W 123°13'2 4.4
2018-Jan-19 18:00N 48°49' W 123°17'510.0
2018-Jan-19 17:29N 48°46' W 123°22'2 1.8
2018-Jan-19 16:05N 48°43' W 123°24'212.8
2018-Jan-19 15:56N 48°45' W 123°22'4 8.5
2018-Jan-19 15:29N 48°48' W 123°19'3 5.6
2018-Jan-19 15:00N 48°51' W 123°20'2 4.7
2018-Jan-19 14:31N 48°49' W 123°17'3 6.0
2018-Jan-19 14:00N 48°48' W 123°13'510.7
2018-Jan-19 13:30N 48°48' W 123°21'7 1.1
2018-Jan-19 07:11N 48°41' W 123°24'211.8
2018-Jan-19 06:59N 48°44' W 123°24'612.6
2018-Jan-19 06:30N 48°49' W 123°20'510.6
2018-Jan-19 06:00N 48°48' W 123°12'5 9.3
2018-Jan-19 05:30N 48°50' W 123°19'1 2.5
2018-Jan-19 05:00N 48°50' W 123°20'3 6.1
2018-Jan-19 04:30N 48°47' W 123°20'5 5.4
2018-Jan-19 03:30N 48°43' W 123°24'612.1
2018-Jan-19 03:00N 48°48' W 123°19'2 4.3
2018-Jan-19 02:27N 48°50' W 123°21'3 6.5
2018-Jan-19 02:00N 48°53' W 123°19'2 3.9
2018-Jan-19 01:30N 48°51' W 123°20'0 0.2
2018-Jan-19 01:00N 48°51' W 123°20'510.4
2018-Jan-19 00:30N 48°48' W 123°13'3 5.6
2018-Jan-19 00:00N 48°49' W 123°17'610.8
2018-Jan-18 23:28N 48°45' W 123°23'0 0.1
2018-Jan-18 21:01N 48°45' W 123°23'013.3
2018-Jan-18 21:00N 48°45' W 123°23'612.5
2018-Jan-18 20:30N 48°51' W 123°20'1 2.4
2018-Jan-18 20:00N 48°52' W 123°19'0 0.4
2018-Jan-18 19:30N 48°51' W 123°19'1 1.8
2018-Jan-18 19:00N 48°51' W 123°20'510.8
2018-Jan-18 18:30N 48°48' W 123°12'4 7.1
2018-Jan-18 17:59N 48°49' W 123°17'710.8
2018-Jan-18 17:22N 48°44' W 123°24'2 2.0
2018-Jan-18 16:15N 48°42' W 123°24'412.2
2018-Jan-18 15:55N 48°45' W 123°22'4 7.9
2018-Jan-18 15:29N 48°48' W 123°19'3 5.6
2018-Jan-18 15:00N 48°51' W 123°20'3 6.1
2018-Jan-18 14:30N 48°49' W 123°16'2 3.3
2018-Jan-18 14:00N 48°48' W 123°13'510.2
2018-Jan-18 13:30N 48°47' W 123°21'2 0.3
2018-Jan-18 06:53N 48°45' W 123°22'512.5
2018-Jan-18 06:30N 48°50' W 123°20'5 8.7
2018-Jan-18 05:54N 48°48' W 123°12'511.9
2018-Jan-18 05:30N 48°50' W 123°19'1 2.4
2018-Jan-18 05:01N 48°50' W 123°20'3 6.2
2018-Jan-18 04:31N 48°47' W 123°20'5 5.3
2018-Jan-18 03:29N 48°43' W 123°24'612.3
2018-Jan-18 03:00N 48°48' W 123°19'4 7.4
2018-Jan-18 02:30N 48°51' W 123°21'2 3.5
2018-Jan-18 02:00N 48°52' W 123°19'1 2.8
2018-Jan-18 01:30N 48°51' W 123°20'0 0.3
2018-Jan-18 01:00N 48°51' W 123°20'3 2.7
2018-Jan-18 00:00N 48°49' W 123°17'113.5
2018-Jan-17 23:57N 48°49' W 123°18'  
2018-Jan-12 15:00N 48°51' W 123°20'3 5.7
2018-Jan-12 14:30N 48°49' W 123°16'2 3.0
2018-Jan-12 13:59N 48°48' W 123°14'5 9.7
2018-Jan-12 13:30N 48°47' W 123°21'5 0.7
2018-Jan-12 07:00N 48°43' W 123°24'613.3
2018-Jan-12 06:30N 48°49' W 123°21'611.2
2018-Jan-12 06:00N 48°48' W 123°12'4 8.3
2018-Jan-12 05:31N 48°49' W 123°18'1 2.8
2018-Jan-12 05:00N 48°50' W 123°20'2 3.9
2018-Jan-12 04:30N 48°48' W 123°19'3 2.5
2018-Jan-12 03:15N 48°45' W 123°22'313.2
2018-Jan-12 03:00N 48°48' W 123°19'4 7.1
2018-Jan-12 02:31N 48°51' W 123°21'2 4.2
2018-Jan-12 02:00N 48°53' W 123°19'2 3.7
2018-Jan-12 01:29N 48°51' W 123°20'0 0.8
2018-Jan-12 00:56N 48°51' W 123°20'612.8
2018-Jan-12 00:30N 48°48' W 123°12'4 7.7
2018-Jan-12 00:00N 48°49' W 123°18'510.4
2018-Jan-11 23:30N 48°45' W 123°23'4 8.2
2018-Jan-11 23:00N 48°41' W 123°25'0 0.0
2018-Jan-11 22:28N 48°41' W 123°25'0 0.0
2018-Jan-11 21:58N 48°41' W 123°25'0 0.0
2018-Jan-11 21:30N 48°41' W 123°25'510.6
2018-Jan-11 21:00N 48°46' W 123°22'5 7.2
2018-Jan-11 20:22N 48°51' W 123°20'2 5.4
2018-Jan-11 20:00N 48°53' W 123°19'2 3.2
2018-Jan-11 19:29N 48°52' W 123°21'1 2.2
2018-Jan-11 19:00N 48°51' W 123°20'4 4.9
2018-Jan-11 18:11N 48°49' W 123°15'312.4
2018-Jan-11 17:57N 48°50' W 123°19'511.8
2018-Jan-11 17:30N 48°45' W 123°23'4 7.7
2018-Jan-11 17:00N 48°41' W 123°25'0 0.0
2018-Jan-11 16:31N 48°41' W 123°25'510.1
2018-Jan-11 16:01N 48°46' W 123°21'3 5.2
2018-Jan-11 15:30N 48°48' W 123°19'3 5.2
2018-Jan-11 14:59N 48°51' W 123°20'3 6.9
2018-Jan-11 14:30N 48°49' W 123°15'0 0.5
2018-Jan-11 13:59N 48°49' W 123°15'4 9.2
2018-Jan-11 13:30N 48°47' W 123°21'612.2
2018-Jan-11 13:01N 48°41' W 123°25'0 0.0
2018-Jan-11 12:31N 48°41' W 123°25'0 0.0
2018-Jan-11 12:00N 48°41' W 123°25'0 0.0
2018-Jan-11 11:31N 48°41' W 123°25'0 0.0
2018-Jan-11 11:01N 48°41' W 123°25'0 0.0
2018-Jan-11 10:30N 48°41' W 123°25'0 0.0
2018-Jan-11 10:00N 48°41' W 123°25'0 0.0
2018-Jan-11 09:31N 48°41' W 123°25'0 0.0
2018-Jan-11 09:01N 48°41' W 123°25'0 0.0
2018-Jan-11 08:31N 48°41' W 123°25'0 0.0
2018-Jan-11 08:00N 48°41' W 123°25'0 0.0
2018-Jan-11 07:30N 48°41' W 123°25'2 3.6
2018-Jan-11 07:00N 48°43' W 123°24'612.7
2018-Jan-11 06:30N 48°49' W 123°20'  
Track history (hours):
 
Tides and Currents Weather Stations Pressure Air Temp Water Temp Dewpoint Dewpoint Depression Visibility Wind Speed Wind Dir Waves Ship Positions

Mayne Queen

Last reported at 2018-Jan-21 06:14 UTC. Time now 2018-Jan-21 07:08 UTC.
Position N 48°42' W 123°24'.

Length 85 m; draft 3.8 m.

Type: Passenger vessel. MMSI: 316001238.

Date/timePositionNaut miles runAvg speedWind from/ knotsBaromVisibWave heightAir tempDewpointWater temp
2018-Jan-21 06:14N 48°42' W 123°24'311.5
2018-Jan-21 05:58N 48°44' W 123°23'510.9
2018-Jan-21 05:30N 48°49' W 123°20'510.7
2018-Jan-21 05:00N 48°48' W 123°12'5 9.6
2018-Jan-21 04:30N 48°50' W 123°19'2 3.4
2018-Jan-21 04:00N 48°48' W 123°19'7 7.8
2018-Jan-21 03:05N 48°42' W 123°24'110.5
2018-Jan-21 03:00N 48°42' W 123°24'611.5
2018-Jan-21 02:30N 48°48' W 123°21'3 6.0
2018-Jan-21 02:00N 48°51' W 123°20'2 3.8
2018-Jan-21 01:30N 48°53' W 123°19'2 3.9
2018-Jan-21 01:00N 48°51' W 123°20'3 5.7
2018-Jan-21 00:31N 48°48' W 123°19'3 6.7
2018-Jan-21 00:00N 48°45' W 123°22'3 0.9
2018-Jan-20 21:13N 48°43' W 123°24'312.5
2018-Jan-20 20:59N 48°46' W 123°22'510.4
2018-Jan-20 20:31N 48°49' W 123°17'2 3.4
2018-Jan-20 19:59N 48°49' W 123°14'4 8.5
2018-Jan-20 19:30N 48°51' W 123°20'3 5.4
2018-Jan-20 19:00N 48°48' W 123°19'3 5.4
2018-Jan-20 18:30N 48°51' W 123°20'5 9.2
2018-Jan-20 18:00N 48°48' W 123°13'2 4.2
2018-Jan-20 17:30N 48°49' W 123°17'2 3.9
2018-Jan-20 17:00N 48°48' W 123°19'611.6
2018-Jan-20 16:28N 48°43' W 123°24'1 2.2
2018-Jan-20 15:53N 48°41' W 123°24'512.3
2018-Jan-20 15:30N 48°46' W 123°22'510.4
2018-Jan-20 15:00N 48°51' W 123°20'3 5.5
2018-Jan-20 14:30N 48°48' W 123°19'3 6.3
2018-Jan-20 14:00N 48°45' W 123°22'4 0.7
2018-Jan-20 07:34N 48°41' W 123°24'111.7
2018-Jan-20 07:28N 48°43' W 123°24'612.1
2018-Jan-20 07:00N 48°48' W 123°21'610.5
2018-Jan-20 06:29N 48°48' W 123°12'3 6.0
2018-Jan-20 06:00N 48°49' W 123°17'3 6.6
2018-Jan-20 05:30N 48°52' W 123°19'1 2.9
2018-Jan-20 05:00N 48°52' W 123°21'3 6.0
2018-Jan-20 04:29N 48°48' W 123°21'613.0
2018-Jan-20 04:00N 48°43' W 123°24'3 3.4
2018-Jan-20 03:11N 48°45' W 123°22'212.5
2018-Jan-20 03:00N 48°47' W 123°20'1 2.4
2018-Jan-20 02:31N 48°48' W 123°20'4 8.5
2018-Jan-20 02:00N 48°53' W 123°19'2 4.0
2018-Jan-20 01:30N 48°51' W 123°20'0 0.6
2018-Jan-20 01:00N 48°51' W 123°20'611.8
2018-Jan-20 00:31N 48°48' W 123°12'5 7.0
2018-Jan-19 23:43N 48°47' W 123°20'313.6
2018-Jan-19 23:29N 48°44' W 123°21'2 0.9
2018-Jan-19 21:09N 48°43' W 123°24'212.1
2018-Jan-19 21:00N 48°45' W 123°23'612.6
2018-Jan-19 20:30N 48°51' W 123°20'1 2.2
2018-Jan-19 20:00N 48°52' W 123°19'1 1.4
2018-Jan-19 19:30N 48°52' W 123°20'1 1.8
2018-Jan-19 19:00N 48°51' W 123°20'5 9.4
2018-Jan-19 18:30N 48°48' W 123°13'2 4.4
2018-Jan-19 18:00N 48°49' W 123°17'510.0
2018-Jan-19 17:29N 48°46' W 123°22'2 1.8
2018-Jan-19 16:05N 48°43' W 123°24'212.8
2018-Jan-19 15:56N 48°45' W 123°22'4 8.5
2018-Jan-19 15:29N 48°48' W 123°19'3 5.6
2018-Jan-19 15:00N 48°51' W 123°20'2 4.7
2018-Jan-19 14:31N 48°49' W 123°17'3 6.0
2018-Jan-19 14:00N 48°48' W 123°13'510.7
2018-Jan-19 13:30N 48°48' W 123°21'7 1.1
2018-Jan-19 07:11N 48°41' W 123°24'211.8
2018-Jan-19 06:59N 48°44' W 123°24'612.6
2018-Jan-19 06:30N 48°49' W 123°20'510.6
2018-Jan-19 06:00N 48°48' W 123°12'5 9.3
2018-Jan-19 05:30N 48°50' W 123°19'1 2.5
2018-Jan-19 05:00N 48°50' W 123°20'3 6.1
2018-Jan-19 04:30N 48°47' W 123°20'5 5.4
2018-Jan-19 03:30N 48°43' W 123°24'612.1
2018-Jan-19 03:00N 48°48' W 123°19'2 4.3
2018-Jan-19 02:27N 48°50' W 123°21'3 6.5
2018-Jan-19 02:00N 48°53' W 123°19'2 3.9
2018-Jan-19 01:30N 48°51' W 123°20'0 0.2
2018-Jan-19 01:00N 48°51' W 123°20'510.4
2018-Jan-19 00:30N 48°48' W 123°13'3 5.6
2018-Jan-19 00:00N 48°49' W 123°17'610.8
2018-Jan-18 23:28N 48°45' W 123°23'0 0.1
2018-Jan-18 21:01N 48°45' W 123°23'013.3
2018-Jan-18 21:00N 48°45' W 123°23'612.5
2018-Jan-18 20:30N 48°51' W 123°20'1 2.4
2018-Jan-18 20:00N 48°52' W 123°19'0 0.4
2018-Jan-18 19:30N 48°51' W 123°19'1 1.8
2018-Jan-18 19:00N 48°51' W 123°20'510.8
2018-Jan-18 18:30N 48°48' W 123°12'4 7.1
2018-Jan-18 17:59N 48°49' W 123°17'710.8
2018-Jan-18 17:22N 48°44' W 123°24'2 2.0
2018-Jan-18 16:15N 48°42' W 123°24'412.2
2018-Jan-18 15:55N 48°45' W 123°22'4 7.9
2018-Jan-18 15:29N 48°48' W 123°19'3 5.6
2018-Jan-18 15:00N 48°51' W 123°20'3 6.1
2018-Jan-18 14:30N 48°49' W 123°16'2 3.3
2018-Jan-18 14:00N 48°48' W 123°13'510.2
2018-Jan-18 13:30N 48°47' W 123°21'2 0.3
2018-Jan-18 06:53N 48°45' W 123°22'512.5
2018-Jan-18 06:30N 48°50' W 123°20'5 8.7
2018-Jan-18 05:54N 48°48' W 123°12'511.9
2018-Jan-18 05:30N 48°50' W 123°19'1 2.4
2018-Jan-18 05:01N 48°50' W 123°20'3 6.2
2018-Jan-18 04:31N 48°47' W 123°20'5 5.3
2018-Jan-18 03:29N 48°43' W 123°24'612.3
2018-Jan-18 03:00N 48°48' W 123°19'4 7.4
2018-Jan-18 02:30N 48°51' W 123°21'2 3.5
2018-Jan-18 02:00N 48°52' W 123°19'1 2.8
2018-Jan-18 01:30N 48°51' W 123°20'0 0.3
2018-Jan-18 01:00N 48°51' W 123°20'3 2.7
2018-Jan-18 00:00N 48°49' W 123°17'113.5
2018-Jan-17 23:57N 48°49' W 123°18'  
2018-Jan-12 15:00N 48°51' W 123°20'3 5.7
2018-Jan-12 14:30N 48°49' W 123°16'2 3.0
2018-Jan-12 13:59N 48°48' W 123°14'5 9.7
2018-Jan-12 13:30N 48°47' W 123°21'5 0.7
2018-Jan-12 07:00N 48°43' W 123°24'613.3
2018-Jan-12 06:30N 48°49' W 123°21'611.2
2018-Jan-12 06:00N 48°48' W 123°12'4 8.3
2018-Jan-12 05:31N 48°49' W 123°18'1 2.8
2018-Jan-12 05:00N 48°50' W 123°20'2 3.9
2018-Jan-12 04:30N 48°48' W 123°19'3 2.5
2018-Jan-12 03:15N 48°45' W 123°22'313.2
2018-Jan-12 03:00N 48°48' W 123°19'4 7.1
2018-Jan-12 02:31N 48°51' W 123°21'2 4.2
2018-Jan-12 02:00N 48°53' W 123°19'2 3.7
2018-Jan-12 01:29N 48°51' W 123°20'0 0.8
2018-Jan-12 00:56N 48°51' W 123°20'612.8
2018-Jan-12 00:30N 48°48' W 123°12'4 7.7
2018-Jan-12 00:00N 48°49' W 123°18'510.4
2018-Jan-11 23:30N 48°45' W 123°23'4 8.2
2018-Jan-11 23:00N 48°41' W 123°25'0 0.0
2018-Jan-11 22:28N 48°41' W 123°25'0 0.0
2018-Jan-11 21:58N 48°41' W 123°25'0 0.0
2018-Jan-11 21:30N 48°41' W 123°25'510.6
2018-Jan-11 21:00N 48°46' W 123°22'5 7.2
2018-Jan-11 20:22N 48°51' W 123°20'2 5.4
2018-Jan-11 20:00N 48°53' W 123°19'2 3.2
2018-Jan-11 19:29N 48°52' W 123°21'1 2.2
2018-Jan-11 19:00N 48°51' W 123°20'4 4.9
2018-Jan-11 18:11N 48°49' W 123°15'312.4
2018-Jan-11 17:57N 48°50' W 123°19'511.8
2018-Jan-11 17:30N 48°45' W 123°23'4 7.7
2018-Jan-11 17:00N 48°41' W 123°25'0 0.0
2018-Jan-11 16:31N 48°41' W 123°25'510.1
2018-Jan-11 16:01N 48°46' W 123°21'3 5.2
2018-Jan-11 15:30N 48°48' W 123°19'3 5.2
2018-Jan-11 14:59N 48°51' W 123°20'3 6.9
2018-Jan-11 14:30N 48°49' W 123°15'0 0.5
2018-Jan-11 13:59N 48°49' W 123°15'4 9.2
2018-Jan-11 13:30N 48°47' W 123°21'612.2
2018-Jan-11 13:01N 48°41' W 123°25'0 0.0
2018-Jan-11 12:31N 48°41' W 123°25'0 0.0
2018-Jan-11 12:00N 48°41' W 123°25'0 0.0
2018-Jan-11 11:31N 48°41' W 123°25'0 0.0
2018-Jan-11 11:01N 48°41' W 123°25'0 0.0
2018-Jan-11 10:30N 48°41' W 123°25'0 0.0
2018-Jan-11 10:00N 48°41' W 123°25'0 0.0
2018-Jan-11 09:31N 48°41' W 123°25'0 0.0
2018-Jan-11 09:01N 48°41' W 123°25'0 0.0
2018-Jan-11 08:31N 48°41' W 123°25'0 0.0
2018-Jan-11 08:00N 48°41' W 123°25'0 0.0
2018-Jan-11 07:30N 48°41' W 123°25'2 3.6
2018-Jan-11 07:00N 48°43' W 123°24'612.7
2018-Jan-11 06:30N 48°49' W 123°20'  

Dump ship's entire track history